Sequoia / Kings National Park, CA

11:15 PM PST on February 05, 2016 (GMT -0800)
APRSWXNET | | Change Station
CLOSE
Current Station
Personal Weather Station
Location: Bishop, CA
Elevation: 4216 ft
Nearby Weather Stations

Elev 4216 ft 37.38 °N, 118.42 °W | Updated 19 minutes ago

Clear
Clear
31 °F
Feels Like 31 °F
N
2
Wind Variable Wind from West
Gusts 4.0 mph

Today
High -- | Low -- °F
--% Chance of Precip.
Yesterday
High -- | Low -- °F
Precip. -- in
Pressure 30.48 in
Visibility 10.0 miles
Clouds Clear
Windchill 31 °F
Dew Point 23 °F
Humidity 73%
Rainfall in
Snow Depth Not available.
6:53 AM 5:22 PM
Waning Crescent, 7% visible
METAR KBIH 060656Z AUTO 32003KT 10SM CLR M02/M04 A3048 RMK AO2 SLP321 T10171044
Pressure 30.48 in
Visibility 10.0 miles
Clouds Clear
Windchill 31 °F
Dew Point 23 °F
Humidity 73%
Rainfall in
Snow Depth Not available.
6:53 AM 5:22 PM
Waning Crescent, 7% visible
METAR KBIH 060656Z AUTO 32003KT 10SM CLR M02/M04 A3048 RMK AO2 SLP321 T10171044

10-Day Weather Forecast

Almanac

Astronomy

Feb. 05, 2016 Rise Set
Actual Time
Civil Twilight
Nautical Twilight
Astronomical Twilight
Moon
Length of Visible Light
Length of Day
Tomorrow will be .
, % of the Moon is Illuminated

Today's Extremes

State Highs State Lows

Community

WunderPhotos

Upload Photos

1,890,932 photos uploaded!

WunderBlog® & News

Nearby

Air Quality

  Air Quality AQ Index Pollutant
Not available.

Snow Depth

Station Depth Elevation

Earthquake Activity

City Distance Mag. Time & Date
Minimum magnitude displayed is 2.5.

Coastal Water Temperatures

Place Temperature

Stations

Nearby Weather Stations

Station Location Temp. Windchill Dew Point Humidity Wind Precip. Elev Updated Type
                   

Watches & Warnings

There are currently no watches in effect.